Time;durP1;ratioP1;P1;durP2;ratioP2;P2;SDS_P1;SDS_P2;PMS_P1;PMS_P2;Temp;Humidity;BMP_temperature;BMP_pressure;BME280_temperature;BME280_humidity;BME280_pressure;Samples;Min_cycle;Max_cycle;Signal;HPM_P1;HPM_P2
2023/06/15 00:00:19;;;;;;;5.13;1.85;;;17.90;87.40;;;;;;5055546;28;20052;-53
2023/06/15 00:02:45;;;;;;;2.53;1.73;;;17.80;87.90;;;;;;5055235;28;20064;-53
2023/06/15 00:05:11;;;;;;;3.83;1.92;;;17.80;88.20;;;;;;5055767;28;20036;-53
2023/06/15 00:07:37;;;;;;;4.72;2.03;;;17.80;88.10;;;;;;5055136;28;20389;-55
2023/06/15 00:10:03;;;;;;;3.90;2.25;;;17.70;88.50;;;;;;5054993;28;20025;-53
2023/06/15 00:12:29;;;;;;;3.72;2.08;;;17.70;88.90;;;;;;5055150;28;20434;-53
2023/06/15 00:14:54;;;;;;;4.93;2.40;;;17.70;88.70;;;;;;5055116;28;20108;-55
2023/06/15 00:17:21;;;;;;;3.97;1.92;;;17.60;89.10;;;;;;5054937;28;20033;-55
2023/06/15 00:19:47;;;;;;;3.53;2.08;;;17.50;89.80;;;;;;5055022;28;20025;-55
2023/06/15 00:22:15;;;;;;;4.90;2.30;;;17.50;90.10;;;;;;5054778;28;20036;-55
2023/06/15 00:24:43;;;;;;;3.10;1.85;;;17.40;90.20;;;;;;5054948;28;20104;-54
2023/06/15 00:27:10;;;;;;;3.97;2.13;;;17.40;90.30;;;;;;5054551;28;20536;-53
2023/06/15 00:29:37;;;;;;;4.22;2.08;;;17.40;91.10;;;;;;5053681;28;20029;-54
2023/06/15 00:32:06;;;;;;;3.13;2.05;;;17.30;91.20;;;;;;5054502;28;20536;-53
2023/06/15 00:34:32;;;;;;;5.03;2.15;;;17.30;91.20;;;;;;5054984;28;20059;-54
2023/06/15 00:36:58;;;;;;;3.05;2.10;;;17.30;91.10;;;;;;5054592;28;20025;-54
2023/06/15 00:39:23;;;;;;;3.28;1.88;;;17.20;91.10;;;;;;5053452;28;20061;-54
2023/06/15 00:41:49;;;;;;;4.13;1.90;;;17.20;91.20;;;;;;5053112;28;20559;-51
2023/06/15 00:44:15;;;;;;;2.88;1.98;;;17.10;91.30;;;;;;5054694;28;20028;-54
2023/06/15 00:46:41;;;;;;;5.15;2.08;;;17.10;91.30;;;;;;5054664;28;20091;-56
2023/06/15 00:49:08;;;;;;;4.60;2.08;;;17.10;91.40;;;;;;5053631;28;20037;-56
2023/06/15 00:51:38;;;;;;;3.08;1.80;;;17.10;92.00;;;;;;5054350;28;20098;-50
2023/06/15 00:54:04;;;;;;;3.72;2.22;;;17.10;91.90;;;;;;5054674;28;20025;-55
2023/06/15 00:56:30;;;;;;;3.95;1.98;;;17.10;92.40;;;;;;5051688;28;20477;-54
2023/06/15 00:58:57;;;;;;;3.65;2.17;;;17.00;92.00;;;;;;5054460;28;20032;-55
2023/06/15 01:01:23;;;;;;;3.80;1.98;;;17.00;92.20;;;;;;5052671;28;20033;-54
2023/06/15 01:03:49;;;;;;;4.65;2.22;;;17.00;92.20;;;;;;5052788;28;20025;-51
2023/06/15 01:06:19;;;;;;;3.83;1.98;;;16.90;92.40;;;;;;5054494;28;20033;-54
2023/06/15 01:08:49;;;;;;;4.97;2.55;;;16.90;92.80;;;;;;5052890;28;20043;-56
2023/06/15 01:11:15;;;;;;;5.05;2.30;;;16.80;93.10;;;;;;5054105;28;20033;-55
2023/06/15 01:13:43;;;;;;;4.50;2.45;;;16.80;93.60;;;;;;5053141;28;20400;-55
2023/06/15 01:16:14;;;;;;;6.63;2.55;;;16.80;93.50;;;;;;5052736;28;20044;-55
2023/06/15 01:18:47;;;;;;;5.00;2.88;;;16.80;93.40;;;;;;5052737;28;20040;-55
2023/06/15 01:21:14;;;;;;;3.40;2.20;;;16.80;93.80;;;;;;5053833;28;20079;-55
2023/06/15 01:24:03;;;;;;;6.70;2.30;;;16.80;93.50;;;;;;5052681;28;20478;-55
2023/06/15 01:26:29;;;;;;;5.10;2.60;;;16.80;93.50;;;;;;5054171;28;20135;-56
2023/06/15 01:28:56;;;;;;;4.85;2.78;;;16.70;93.70;;;;;;5052699;28;20090;-56
2023/06/15 01:31:23;;;;;;;6.05;2.50;;;16.70;93.70;;;;;;5053802;28;20060;-53
2023/06/15 01:33:51;;;;;;;5.90;2.90;;;16.60;93.80;;;;;;5052571;28;20029;-55
2023/06/15 01:36:18;;;;;;;5.07;2.47;;;16.60;94.00;;;;;;5053756;28;20124;-55
2023/06/15 01:38:46;;;;;;;6.38;3.03;;;16.60;94.10;;;;;;5053456;28;20040;-54
2023/06/15 01:41:12;;;;;;;6.80;2.50;;;16.60;94.20;;;;;;5053487;28;20025;-55
2023/06/15 01:43:39;;;;;;;4.25;2.47;;;16.60;94.20;;;;;;5053568;28;20435;-51
2023/06/15 01:46:06;;;;;;;5.70;2.75;;;16.50;94.30;;;;;;5052782;28;20086;-51
2023/06/15 01:48:32;;;;;;;5.15;2.92;;;16.50;94.40;;;;;;5052653;28;20040;-51
2023/06/15 01:51:00;;;;;;;6.05;2.40;;;16.50;94.60;;;;;;5052403;28;20110;-53
2023/06/15 01:53:25;;;;;;;5.82;2.80;;;16.40;95.00;;;;;;5052724;28;20539;-54
2023/06/15 01:55:53;;;;;;;6.18;2.67;;;16.50;95.20;;;;;;5052894;28;20031;-51
2023/06/15 01:58:19;;;;;;;5.28;2.50;;;16.40;95.40;;;;;;5051632;28;20029;-55
2023/06/15 02:00:46;;;;;;;5.50;2.45;;;16.40;95.40;;;;;;5051675;28;20039;-50
2023/06/15 02:03:12;;;;;;;5.93;2.75;;;16.40;95.30;;;;;;5051593;28;20039;-52
2023/06/15 02:05:40;;;;;;;5.05;2.47;;;16.40;95.40;;;;;;5052853;28;20421;-51
2023/06/15 02:08:10;;;;;;;7.18;2.90;;;16.30;95.50;;;;;;5050972;28;20033;-53
2023/06/15 02:10:37;;;;;;;5.18;2.40;;;16.30;95.50;;;;;;5051321;28;20041;-54
2023/06/15 02:13:06;;;;;;;3.85;2.22;;;16.30;96.10;;;;;;5051551;28;20531;-50
2023/06/15 02:15:32;;;;;;;4.47;2.22;;;16.30;96.50;;;;;;5051181;28;20098;-53
2023/06/15 02:18:02;;;;;;;5.60;2.67;;;16.30;95.90;;;;;;5052197;28;20488;-54
2023/06/15 02:20:29;;;;;;;6.45;2.42;;;16.30;96.20;;;;;;5051122;28;20028;-54
2023/06/15 02:22:59;;;;;;;4.65;2.55;;;16.30;96.30;;;;;;5050839;28;20075;-50
2023/06/15 02:25:25;;;;;;;;;;;16.30;96.10;;;;;;5052688;28;20052;-50
2023/06/15 02:27:51;;;;;;;5.18;2.03;;;16.30;96.20;;;;;;5052085;28;19912;-55
2023/06/15 02:30:17;;;;;;;4.53;2.40;;;16.30;96.70;;;;;;5052412;28;20032;-53
2023/06/15 02:32:43;;;;;;;4.65;2.67;;;16.20;97.00;;;;;;5050609;28;20082;-50
2023/06/15 02:35:12;;;;;;;6.35;2.63;;;16.20;96.70;;;;;;5052192;28;20029;-54
2023/06/15 02:37:39;;;;;;;4.95;2.65;;;16.20;97.10;;;;;;5050839;28;20262;-50
2023/06/15 02:40:07;;;;;;;6.38;2.75;;;16.20;97.20;;;;;;5051178;28;20029;-53
2023/06/15 02:42:33;;;;;;;4.85;2.63;;;16.10;97.40;;;;;;5051104;28;20021;-52
2023/06/15 02:44:59;;;;;;;7.10;3.10;;;16.10;97.50;;;;;;5051052;28;20025;-52
2023/06/15 02:47:26;;;;;;;5.30;2.50;;;16.10;97.80;;;;;;5050893;28;20400;-49
2023/06/15 02:49:53;;;;;;;5.63;2.83;;;16.10;98.10;;;;;;5051045;28;20111;-52
2023/06/15 02:52:20;;;;;;;6.65;3.00;;;16.10;98.00;;;;;;5050414;28;20678;-52
2023/06/15 02:54:46;;;;;;;6.70;2.97;;;16.10;98.10;;;;;;5051082;28;20090;-54
2023/06/15 02:57:15;;;;;;;4.68;2.53;;;16.10;98.40;;;;;;5050994;28;20043;-50
2023/06/15 02:59:55;;;;;;;5.40;2.75;;;16.10;98.40;;;;;;5050381;28;20040;-55
2023/06/15 03:02:21;;;;;;;3.63;2.40;;;16.00;98.40;;;;;;5051767;28;20021;-51
2023/06/15 03:04:50;;;;;;;5.93;2.78;;;16.00;98.30;;;;;;5050477;28;20481;-50
2023/06/15 03:07:20;;;;;;;5.43;2.30;;;16.00;98.50;;;;;;5050057;28;20037;-53
2023/06/15 03:10:15;;;;;;;6.20;2.80;;;16.00;98.50;;;;;;5046388;28;20497;-54
2023/06/15 03:12:44;;;;;;;5.88;2.72;;;16.00;98.50;;;;;;5050402;28;20043;-52
2023/06/15 03:15:11;;;;;;;7.05;2.95;;;16.00;98.70;;;;;;5050097;28;20040;-55
2023/06/15 03:17:39;;;;;;;6.28;2.50;;;16.00;98.70;;;;;;5049597;28;20025;-54
2023/06/15 03:20:10;;;;;;;6.60;2.80;;;16.00;99.20;;;;;;5049705;28;20029;-50
2023/06/15 03:22:36;;;;;;;6.78;2.67;;;15.90;99.10;;;;;;5049703;28;20393;-53
2023/06/15 03:25:03;;;;;;;4.93;2.95;;;15.90;99.40;;;;;;5050313;28;20059;-52
2023/06/15 03:27:32;;;;;;;5.72;2.78;;;16.00;99.50;;;;;;5049746;28;20043;-52
2023/06/15 03:30:01;;;;;;;6.47;2.80;;;16.00;99.60;;;;;;5050014;28;20032;-49
2023/06/15 03:32:29;;;;;;;4.70;2.78;;;16.00;99.50;;;;;;5049944;28;20489;-52
2023/06/15 03:34:57;;;;;;;4.70;2.60;;;16.00;99.40;;;;;;5049969;28;20033;-53
2023/06/15 03:37:25;;;;;;;3.85;2.47;;;16.00;99.90;;;;;;5049893;28;20037;-50
2023/06/15 03:39:51;;;;;;;6.20;3.00;;;16.00;99.70;;;;;;5050327;28;20112;-51
2023/06/15 03:42:17;;;;;;;5.47;2.75;;;15.90;99.50;;;;;;5049931;28;20489;-52
2023/06/15 03:44:43;;;;;;;6.15;2.78;;;16.00;99.80;;;;;;5050136;28;20061;-53
2023/06/15 03:47:09;;;;;;;5.63;3.28;;;15.90;99.70;;;;;;5049730;28;20542;-51
2023/06/15 03:49:35;;;;;;;5.97;3.20;;;15.90;99.70;;;;;;5050029;28;20025;-51
2023/06/15 03:52:02;;;;;;;6.32;2.95;;;15.90;99.90;;;;;;5049375;28;20033;-52
2023/06/15 03:54:28;;;;;;;6.65;3.03;;;15.90;99.90;;;;;;5049891;28;20029;-53
2023/06/15 03:56:53;;;;;;;7.30;3.72;;;15.90;99.90;;;;;;5049814;28;20029;-52
2023/06/15 03:59:20;;;;;;;10.95;3.40;;;15.90;99.90;;;;;;5049892;28;20025;-53
2023/06/15 04:01:46;;;;;;;7.10;3.25;;;15.90;99.90;;;;;;5049689;28;20535;-54
2023/06/15 04:04:14;;;;;;;8.18;3.42;;;15.90;99.90;;;;;;5049732;28;20033;-51
2023/06/15 04:06:45;;;;;;;5.70;3.50;;;15.90;99.90;;;;;;5050842;28;20166;-49
2023/06/15 04:09:14;;;;;;;8.60;3.53;;;16.00;99.90;;;;;;5049992;28;20394;-50
2023/06/15 04:11:41;;;;;;;5.17;3.30;;;16.00;99.90;;;;;;5050913;28;20029;-52
2023/06/15 04:14:07;;;;;;;7.60;3.05;;;16.00;99.90;;;;;;5050107;28;20090;-51
2023/06/15 04:16:33;;;;;;;8.18;3.20;;;16.00;99.90;;;;;;5033496;28;20443;-50
2023/06/15 04:18:59;;;;;;;7.82;3.50;;;16.00;99.90;;;;;;5049561;28;20029;-53
2023/06/15 04:21:26;;;;;;;7.65;3.45;;;16.00;99.90;;;;;;5049711;28;20021;-50
2023/06/15 04:23:51;;;;;;;6.90;3.88;;;16.10;99.90;;;;;;5049556;28;20079;-55
2023/06/15 04:26:18;;;;;;;6.53;3.55;;;16.10;99.90;;;;;;5049630;28;20493;-52
2023/06/15 04:28:45;;;;;;;5.72;3.25;;;16.10;99.90;;;;;;5049453;28;20401;-55
2023/06/15 04:31:17;;;;;;;6.85;3.08;;;16.20;99.90;;;;;;5053127;28;20548;-50
2023/06/15 04:33:46;;;;;;;6.10;3.10;;;16.20;99.90;;;;;;5053213;28;20461;-54
2023/06/15 04:36:13;;;;;;;7.85;3.58;;;16.20;99.90;;;;;;5053278;28;20032;-49
2023/06/15 04:38:46;;;;;;;5.82;3.03;;;16.20;99.90;;;;;;5053406;28;20393;-54
2023/06/15 04:41:14;;;;;;;6.15;3.10;;;16.30;99.90;;;;;;5052721;28;20023;-51
2023/06/15 04:43:41;;;;;;;5.32;3.28;;;16.30;99.90;;;;;;5052638;28;20095;-52
2023/06/15 04:46:08;;;;;;;7.00;3.05;;;16.40;99.90;;;;;;5052620;28;20058;-54
2023/06/15 04:48:35;;;;;;;6.07;3.40;;;16.40;99.90;;;;;;5053070;28;20032;-53
2023/06/15 04:51:00;;;;;;;8.52;3.30;;;16.50;99.90;;;;;;5053187;28;20040;-50
2023/06/15 04:53:27;;;;;;;5.78;3.40;;;16.50;99.90;;;;;;5053196;28;20435;-50
2023/06/15 04:55:53;;;;;;;5.38;2.83;;;16.60;99.90;;;;;;5054344;28;20156;-55
2023/06/15 04:58:19;;;;;;;5.80;2.90;;;16.70;99.90;;;;;;5054135;28;20143;-51
2023/06/15 05:00:46;;;;;;;5.15;2.83;;;16.80;99.90;;;;;;5052469;28;20025;-55
2023/06/15 05:03:12;;;;;;;6.85;3.13;;;16.80;99.90;;;;;;5052923;28;20021;-54
2023/06/15 05:05:39;;;;;;;5.72;3.00;;;16.90;99.90;;;;;;5053018;28;20037;-54
2023/06/15 05:08:04;;;;;;;7.55;3.40;;;17.00;99.90;;;;;;5052590;28;20041;-52
2023/06/15 05:10:31;;;;;;;5.65;3.15;;;17.00;99.90;;;;;;5052499;28;20063;-53
2023/06/15 05:12:58;;;;;;;6.13;2.90;;;17.10;99.90;;;;;;5052869;28;20049;-56
2023/06/15 05:15:24;;;;;;;5.88;3.42;;;17.20;99.90;;;;;;5052644;28;20024;-52
2023/06/15 05:17:50;;;;;;;5.97;3.33;;;17.20;99.90;;;;;;5052394;28;20512;-54
2023/06/15 05:20:16;;;;;;;7.00;3.83;;;17.30;99.90;;;;;;5053737;28;20025;-53
2023/06/15 05:22:42;;;;;;;6.85;3.53;;;17.40;99.90;;;;;;5052329;28;20024;-54
2023/06/15 05:25:08;;;;;;;7.68;2.78;;;17.40;99.90;;;;;;5054051;28;20025;-52
2023/06/15 05:27:36;;;;;;;5.82;3.03;;;17.50;99.90;;;;;;5054204;28;20040;-57
2023/06/15 05:30:04;;;;;;;5.30;3.00;;;17.60;99.90;;;;;;5052205;28;20040;-52
2023/06/15 05:32:30;;;;;;;6.53;3.20;;;17.70;99.20;;;;;;5052394;28;20051;-53
2023/06/15 05:34:56;;;;;;;4.95;2.80;;;17.80;99.20;;;;;;5052713;28;20111;-49
2023/06/15 05:37:21;;;;;;;5.78;3.13;;;17.90;98.70;;;;;;5052200;28;20449;-53
2023/06/15 05:39:47;;;;;;;5.97;3.38;;;18.00;98.60;;;;;;5052541;28;20446;-53
2023/06/15 05:42:14;;;;;;;7.03;3.70;;;18.10;98.30;;;;;;5051382;28;20033;-54
2023/06/15 05:44:43;;;;;;;5.57;2.90;;;18.20;98.20;;;;;;5052279;28;20048;-54
2023/06/15 05:47:09;;;;;;;5.60;3.15;;;18.30;97.90;;;;;;5053465;28;20056;-50
2023/06/15 05:49:36;;;;;;;6.38;3.58;;;18.40;97.70;;;;;;5052567;28;20398;-55
2023/06/15 05:52:02;;;;;;;5.85;3.08;;;18.50;97.50;;;;;;5051832;28;20111;-51
2023/06/15 05:54:31;;;;;;;4.25;2.40;;;18.60;97.60;;;;;;5052297;28;20033;-53
2023/06/15 05:56:57;;;;;;;5.57;3.00;;;18.80;97.40;;;;;;5053127;28;20392;-53
2023/06/15 05:59:23;;;;;;;6.90;2.80;;;18.90;97.60;;;;;;5052235;28;20525;-53
2023/06/15 06:01:49;;;;;;;4.70;2.50;;;19.00;96.30;;;;;;5051856;28;20083;-53
2023/06/15 06:04:15;;;;;;;3.90;2.50;;;19.20;95.90;;;;;;5052004;28;20029;-51
2023/06/15 06:06:41;;;;;;;5.85;2.50;;;19.30;94.60;;;;;;5051844;28;20044;-52
2023/06/15 06:09:06;;;;;;;4.00;2.50;;;19.50;94.90;;;;;;5053109;28;20098;-52
2023/06/15 06:11:32;;;;;;;4.10;2.60;;;19.60;93.50;;;;;;5051635;28;20041;-50
2023/06/15 06:14:02;;;;;;;3.63;2.05;;;19.80;93.20;;;;;;5051657;28;20529;-51
2023/06/15 06:16:28;;;;;;;5.35;2.53;;;20.10;91.80;;;;;;5051778;28;20033;-52
2023/06/15 06:18:55;;;;;;;5.35;2.20;;;20.30;91.50;;;;;;5051661;28;20492;-51
2023/06/15 06:21:21;;;;;;;4.45;2.55;;;20.50;91.90;;;;;;5051001;28;20120;-52
2023/06/15 06:23:46;;;;;;;5.15;2.63;;;20.60;91.80;;;;;;5052995;28;20470;-54
2023/06/15 06:26:12;;;;;;;3.92;2.20;;;20.60;92.30;;;;;;5051053;28;20041;-52
2023/06/15 06:28:38;;;;;;;4.35;2.40;;;20.80;91.60;;;;;;5051359;28;20497;-51
2023/06/15 06:31:04;;;;;;;6.63;2.80;;;20.90;91.00;;;;;;5052476;28;20032;-54
2023/06/15 06:33:30;;;;;;;5.55;2.65;;;21.00;89.30;;;;;;5051366;28;20033;-53
2023/06/15 06:35:55;;;;;;;5.60;2.47;;;21.10;90.10;;;;;;5052921;28;20485;-52
2023/06/15 06:38:21;;;;;;;4.30;2.35;;;21.20;89.00;;;;;;5052333;28;20072;-52
2023/06/15 06:40:47;;;;;;;6.90;4.13;;;21.30;90.30;;;;;;5052086;28;20029;-53
2023/06/15 06:43:12;;;;;;;5.07;2.92;;;21.60;87.80;;;;;;5052746;28;20017;-53
2023/06/15 06:45:40;;;;;;;5.43;3.10;;;21.80;87.10;;;;;;5051028;28;20033;-54
2023/06/15 06:48:06;;;;;;;3.75;2.20;;;21.90;87.90;;;;;;5052147;28;20029;-52
2023/06/15 06:50:31;;;;;;;4.68;2.40;;;22.10;83.00;;;;;;5052669;28;20044;-53
2023/06/15 06:52:57;;;;;;;3.25;2.05;;;22.10;85.40;;;;;;5051529;28;20029;-51
2023/06/15 06:55:23;;;;;;;4.20;2.13;;;22.30;81.20;;;;;;5051095;28;20036;-53
2023/06/15 06:57:49;;;;;;;5.13;2.70;;;22.40;84.10;;;;;;5052562;28;20068;-53
2023/06/15 07:00:15;;;;;;;10.00;5.50;;;22.60;83.10;;;;;;5051838;28;20090;-52
2023/06/15 07:02:41;;;;;;;7.97;4.25;;;22.80;78.40;;;;;;5052150;28;20104;-53
2023/06/15 07:05:07;;;;;;;6.15;2.20;;;22.90;78.20;;;;;;5052151;28;20100;-52
2023/06/15 07:07:32;;;;;;;3.58;2.10;;;22.90;77.50;;;;;;5051795;28;20102;-54
2023/06/15 07:09:58;;;;;;;8.57;4.10;;;22.90;76.20;;;;;;5051904;28;20029;-54
2023/06/15 07:12:24;;;;;;;4.07;2.72;;;22.90;77.00;;;;;;5051845;28;20021;-54
2023/06/15 07:14:51;;;;;;;8.75;5.38;;;22.90;75.40;;;;;;5052430;28;20390;-54
2023/06/15 07:17:17;;;;;;;4.22;2.15;;;22.90;76.40;;;;;;5051676;28;20481;-53
2023/06/15 07:19:42;;;;;;;5.75;2.58;;;22.90;78.20;;;;;;5052193;28;20110;-54
2023/06/15 07:22:08;;;;;;;5.20;2.40;;;23.10;74.40;;;;;;5052059;28;20029;-52
2023/06/15 07:24:35;;;;;;;3.45;1.80;;;23.10;75.10;;;;;;5052148;28;20025;-53
2023/06/15 07:27:01;;;;;;;3.70;1.92;;;23.20;74.20;;;;;;5051695;28;20064;-54
2023/06/15 07:29:27;;;;;;;11.13;5.97;;;23.30;74.20;;;;;;5051806;28;20063;-54
2023/06/15 07:31:53;;;;;;;3.17;2.05;;;23.50;73.60;;;;;;5051779;28;20568;-53
2023/06/15 07:34:19;;;;;;;4.13;2.20;;;23.50;75.70;;;;;;5051571;28;20060;-53
2023/06/15 07:36:45;;;;;;;5.72;2.90;;;23.70;74.80;;;;;;5051363;28;20388;-50
2023/06/15 07:39:10;;;;;;;4.88;3.35;;;23.80;72.80;;;;;;5051958;28;20025;-54
2023/06/15 07:41:36;;;;;;;5.55;2.95;;;23.90;71.20;;;;;;5051556;28;20445;-53
2023/06/15 07:44:02;;;;;;;4.30;2.58;;;24.00;70.50;;;;;;5051719;28;20025;-54
2023/06/15 07:46:28;;;;;;;6.28;2.60;;;24.00;70.70;;;;;;5051377;28;20059;-51
2023/06/15 07:48:54;;;;;;;5.30;2.40;;;24.00;70.60;;;;;;5050336;28;20064;-55
2023/06/15 07:51:19;;;;;;;4.50;2.13;;;24.10;71.50;;;;;;5051171;28;20090;-54
2023/06/15 07:53:46;;;;;;;4.15;2.22;;;24.10;72.60;;;;;;5051185;28;20025;-52
2023/06/15 07:56:12;;;;;;;5.20;2.05;;;24.20;72.30;;;;;;5051333;28;20067;-54
2023/06/15 07:58:38;;;;;;;4.68;2.45;;;24.20;70.60;;;;;;5049668;28;20481;-52
2023/06/15 08:01:04;;;;;;;4.82;2.50;;;24.30;71.20;;;;;;5051494;28;20390;-53
2023/06/15 08:03:30;;;;;;;4.35;2.10;;;24.30;71.20;;;;;;5051234;28;20033;-51
2023/06/15 08:05:56;;;;;;;2.92;2.03;;;24.40;70.80;;;;;;5054783;28;20021;-53
2023/06/15 08:08:21;;;;;;;4.97;2.17;;;24.40;69.30;;;;;;5054838;28;20445;-54
2023/06/15 08:10:47;;;;;;;3.65;1.88;;;24.50;69.30;;;;;;5055176;28;20020;-54
2023/06/15 08:13:13;;;;;;;4.28;1.90;;;24.50;69.30;;;;;;5054797;28;20477;-53
2023/06/15 08:15:38;;;;;;;5.13;1.88;;;24.50;68.50;;;;;;5054909;28;20028;-55
2023/06/15 08:18:04;;;;;;;3.53;2.10;;;24.60;67.40;;;;;;5054722;28;20500;-54
2023/06/15 08:20:30;;;;;;;4.28;1.98;;;24.50;66.70;;;;;;5054779;28;20107;-53
2023/06/15 08:22:55;;;;;;;3.85;2.20;;;24.60;66.60;;;;;;5054658;28;20029;-54
2023/06/15 08:25:21;;;;;;;5.65;2.40;;;24.60;66.80;;;;;;5055049;28;20029;-54
2023/06/15 08:27:47;;;;;;;4.60;2.00;;;24.50;68.20;;;;;;5054554;28;20083;-54
2023/06/15 08:30:13;;;;;;;3.90;2.20;;;24.50;69.20;;;;;;5054884;28;20075;-54
2023/06/15 08:32:38;;;;;;;3.20;1.88;;;24.60;68.00;;;;;;5054732;28;20454;-54
2023/06/15 08:35:04;;;;;;;3.70;2.20;;;24.70;68.20;;;;;;5053773;28;20053;-54
2023/06/15 08:37:30;;;;;;;5.05;2.58;;;24.80;68.10;;;;;;5054650;28;20029;-53
2023/06/15 08:39:56;;;;;;;4.93;2.00;;;24.90;66.90;;;;;;5054711;28;20078;-54
2023/06/15 08:42:25;;;;;;;5.88;2.10;;;24.90;67.80;;;;;;5054110;28;20108;-55
2023/06/15 08:44:53;;;;;;;4.35;2.40;;;25.00;64.60;;;;;;5054656;28;20071;-52
2023/06/15 08:47:21;;;;;;;3.83;1.90;;;25.00;65.80;;;;;;5054086;28;20421;-56
2023/06/15 08:49:47;;;;;;;4.55;2.15;;;25.00;65.50;;;;;;5054241;28;20083;-54
2023/06/15 08:52:16;;;;;;;4.47;2.17;;;25.10;65.80;;;;;;5053876;28;20037;-52
2023/06/15 08:54:42;;;;;;;4.05;2.33;;;25.20;66.10;;;;;;5054390;28;20032;-50
2023/06/15 08:57:09;;;;;;;5.30;2.53;;;25.20;65.10;;;;;;5052583;28;20432;-52
2023/06/15 08:59:36;;;;;;;4.45;2.20;;;25.30;64.70;;;;;;5054031;28;20039;-55
2023/06/15 09:02:03;;;;;;;3.33;2.38;;;25.30;64.90;;;;;;5053664;28;20053;-55
2023/06/15 09:04:31;;;;;;;3.03;1.85;;;25.40;65.30;;;;;;5053948;28;20021;-54
2023/06/15 09:07:01;;;;;;;5.05;2.40;;;25.40;65.30;;;;;;5053873;28;20033;-54
2023/06/15 09:09:26;;;;;;;4.10;2.47;;;25.40;64.30;;;;;;5053815;28;20033;-54
2023/06/15 09:11:52;;;;;;;4.65;2.47;;;25.50;63.00;;;;;;5053688;28;20236;-55
2023/06/15 09:14:19;;;;;;;3.78;2.13;;;25.50;63.80;;;;;;5053689;28;20062;-54
2023/06/15 09:16:46;;;;;;;3.45;2.05;;;25.50;62.80;;;;;;5052592;28;20037;-52
2023/06/15 09:19:13;;;;;;;4.53;2.65;;;25.50;64.00;;;;;;5053919;28;20033;-55
2023/06/15 09:21:48;;;;;;;3.53;2.15;;;25.40;64.00;;;;;;5053385;28;20021;-54
2023/06/15 09:24:16;;;;;;;4.38;2.63;;;25.50;64.90;;;;;;5053559;28;20040;-53
2023/06/15 09:26:43;;;;;;;;;;;25.70;66.10;;;;;;5054039;28;20075;-50
2023/06/15 09:29:11;;;;;;;3.83;2.30;;;25.80;63.40;;;;;;5053728;28;19955;-54
2023/06/15 09:31:38;;;;;;;4.65;2.13;;;25.60;63.90;;;;;;5053212;28;20033;-54
2023/06/15 09:34:09;;;;;;;7.93;2.60;;;25.60;64.20;;;;;;5053428;28;20032;-52
2023/06/15 09:36:48;;;;;;;4.85;2.50;;;25.40;63.90;;;;;;5053036;28;20037;-54
2023/06/15 09:39:16;;;;;;;3.63;1.90;;;25.40;64.60;;;;;;5053362;28;20507;-50
2023/06/15 09:41:51;;;;;;;5.07;2.00;;;25.50;64.30;;;;;;5053102;28;20375;-53
2023/06/15 09:44:21;;;;;;;3.30;2.13;;;25.70;63.10;;;;;;5053535;28;20423;-53
2023/06/15 09:46:51;;;;;;;3.85;2.10;;;25.70;62.40;;;;;;5052898;28;20449;-53
2023/06/15 09:49:25;;;;;;;4.70;1.90;;;25.50;62.10;;;;;;5053123;28;20036;-54
2023/06/15 09:51:51;;;;;;;3.35;2.20;;;25.40;63.00;;;;;;5052925;28;20068;-52
2023/06/15 09:54:22;;;;;;;5.38;2.92;;;25.20;63.60;;;;;;5053241;28;20029;-52
2023/06/15 09:56:50;;;;;;;4.63;2.03;;;25.10;63.20;;;;;;5052843;28;20029;-55
2023/06/15 09:59:16;;;;;;;5.10;2.37;;;25.10;64.70;;;;;;5053258;28;20108;-54
2023/06/15 10:01:45;;;;;;;3.72;2.33;;;25.20;64.00;;;;;;5052810;28;20444;-54
2023/06/15 10:04:13;;;;;;;5.72;2.50;;;25.20;64.10;;;;;;5052904;28;20223;-54
2023/06/15 10:06:43;;;;;;;3.88;2.30;;;25.30;63.80;;;;;;5052573;28;20070;-53
2023/06/15 10:09:11;;;;;;;4.63;2.67;;;25.40;63.10;;;;;;5052731;28;20029;-55
2023/06/15 10:11:41;;;;;;;4.55;2.20;;;25.50;62.80;;;;;;5052526;28;20477;-53
2023/06/15 10:14:17;;;;;;;4.20;2.20;;;25.40;63.20;;;;;;5052529;28;20033;-52
2023/06/15 10:16:50;;;;;;;3.40;2.13;;;25.50;64.80;;;;;;5052437;28;20029;-55
2023/06/15 10:19:18;;;;;;;3.58;2.33;;;25.60;63.30;;;;;;5052507;28;20348;-54
2023/06/15 10:21:44;;;;;;;;;;;25.50;64.70;;;;;;5052818;28;20028;-55
2023/06/15 10:24:16;;;;;;;4.13;2.28;;;25.70;63.50;;;;;;5052418;28;19988;-53
2023/06/15 10:26:43;;;;;;;3.97;2.60;;;25.90;63.00;;;;;;5052014;28;20412;-54
2023/06/15 10:29:23;;;;;;;3.20;2.05;;;25.90;62.20;;;;;;5052047;28;20043;-54
2023/06/15 10:32:02;;;;;;;7.18;2.97;;;26.20;61.50;;;;;;5051933;28;20087;-54
2023/06/15 10:34:50;;;;;;;3.22;2.05;;;26.30;62.20;;;;;;5052557;28;20064;-51
2023/06/15 10:37:30;;;;;;;5.28;2.35;;;26.30;61.30;;;;;;5052191;28;20028;-54
2023/06/15 10:40:05;;;;;;;6.60;2.40;;;26.20;59.40;;;;;;5051940;28;20041;-55
2023/06/15 10:42:43;;;;;;;4.35;2.47;;;26.30;60.00;;;;;;5052118;28;20052;-55
2023/06/15 10:45:37;;;;;;;3.65;2.30;;;26.20;60.70;;;;;;5052032;28;20057;-55
2023/06/15 10:48:04;;;;;;;4.78;2.05;;;26.20;57.90;;;;;;5038770;28;20682;-54
2023/06/15 10:50:39;;;;;;;3.70;2.05;;;26.30;57.00;;;;;;5051699;28;20396;-54
2023/06/15 10:53:05;;;;;;;3.83;1.80;;;26.30;57.90;;;;;;5051889;28;20039;-56
2023/06/15 10:55:31;;;;;;;3.50;2.17;;;26.40;57.00;;;;;;5051701;28;20036;-55
2023/06/15 10:58:16;;;;;;;4.38;2.17;;;26.30;58.90;;;;;;5051508;28;20028;-55
2023/06/15 11:00:44;;;;;;;4.97;2.35;;;26.50;58.80;;;;;;5051507;28;20470;-53
2023/06/15 11:03:26;;;;;;;3.70;2.22;;;26.60;58.20;;;;;;5051559;28;20035;-55
2023/06/15 11:06:15;;;;;;;4.53;2.35;;;26.60;58.90;;;;;;5052136;28;20033;-55
2023/06/15 11:09:02;;;;;;;3.90;2.42;;;26.60;59.10;;;;;;5051663;28;20397;-55
2023/06/15 11:11:36;;;;;;;3.63;2.43;;;26.70;57.80;;;;;;5051446;28;20037;-54
2023/06/15 11:14:07;;;;;;;4.00;2.03;;;26.70;56.90;;;;;;5051918;28;20048;-55
2023/06/15 11:16:35;;;;;;;4.75;2.13;;;26.60;56.80;;;;;;5051804;28;20497;-55
2023/06/15 11:19:15;;;;;;;5.10;2.28;;;26.70;56.70;;;;;;5051680;28;20025;-54
2023/06/15 11:21:50;;;;;;;3.88;2.05;;;26.70;56.90;;;;;;5051581;28;20064;-55
2023/06/15 11:24:16;;;;;;;3.65;1.85;;;26.70;58.30;;;;;;5051759;28;20033;-56
2023/06/15 11:26:44;;;;;;;3.40;2.00;;;26.80;57.10;;;;;;5051394;28;20039;-55
2023/06/15 11:29:12;;;;;;;4.70;2.10;;;26.80;57.10;;;;;;5051751;28;20039;-54
2023/06/15 11:31:40;;;;;;;;;;;26.80;57.10;;;;;;5051815;28;20045;-55
2023/06/15 11:34:09;;;;;;;3.70;2.15;;;26.80;56.60;;;;;;5051276;28;19913;-51
2023/06/15 11:36:36;;;;;;;3.67;1.95;;;26.70;57.20;;;;;;5051110;28;20033;-54
2023/06/15 11:39:04;;;;;;;3.35;1.90;;;26.70;57.90;;;;;;5050623;28;20453;-52
2023/06/15 11:41:30;;;;;;;3.95;1.98;;;26.70;56.90;;;;;;5051237;28;20029;-53
2023/06/15 11:43:57;;;;;;;4.28;2.00;;;26.80;56.90;;;;;;5051581;28;20040;-54
2023/06/15 11:46:25;;;;;;;2.80;1.80;;;26.80;57.00;;;;;;5051159;28;20539;-54
2023/06/15 11:48:57;;;;;;;3.42;1.85;;;26.80;56.20;;;;;;5051297;28;20033;-53
2023/06/15 11:51:24;;;;;;;4.15;1.83;;;26.60;57.00;;;;;;5051056;28;20044;-55
2023/06/15 11:53:52;;;;;;;3.40;2.08;;;26.50;56.50;;;;;;5050902;28;20029;-55
2023/06/15 11:56:18;;;;;;;3.28;1.60;;;26.40;56.30;;;;;;5051200;28;20040;-53
2023/06/15 11:58:49;;;;;;;5.13;2.28;;;26.40;56.70;;;;;;5051064;28;20063;-55
2023/06/15 12:01:16;;;;;;;4.20;1.95;;;26.50;57.30;;;;;;5050764;28;20485;-51
2023/06/15 12:03:49;;;;;;;4.35;2.10;;;26.60;57.60;;;;;;5050958;28;20036;-55
2023/06/15 12:06:20;;;;;;;3.58;2.08;;;26.80;56.00;;;;;;5051362;28;20386;-53
2023/06/15 12:08:50;;;;;;;3.33;1.90;;;26.90;55.60;;;;;;5050656;28;20490;-55
2023/06/15 12:11:20;;;;;;;4.85;2.33;;;26.90;56.60;;;;;;5050774;28;20032;-55
2023/06/15 12:13:45;;;;;;;2.58;1.73;;;27.10;56.40;;;;;;5051042;28;20082;-52
2023/06/15 12:16:11;;;;;;;3.33;2.10;;;27.10;55.40;;;;;;5050890;28;20033;-52
2023/06/15 12:18:37;;;;;;;3.47;2.03;;;27.10;55.90;;;;;;5050841;28;20394;-50
2023/06/15 12:21:03;;;;;;;3.53;2.03;;;27.10;56.00;;;;;;5050640;28;20029;-55
2023/06/15 12:23:31;;;;;;;3.53;1.92;;;27.00;56.40;;;;;;5050601;28;20029;-54
2023/06/15 12:25:58;;;;;;;7.53;2.17;;;26.80;57.30;;;;;;5050693;28;20426;-54
2023/06/15 12:28:26;;;;;;;6.45;2.10;;;26.80;58.00;;;;;;5051049;28;20037;-51
2023/06/15 12:31:04;;;;;;;3.40;1.60;;;26.80;56.90;;;;;;5051002;28;20049;-56
2023/06/15 12:33:31;;;;;;;3.45;2.13;;;26.90;57.50;;;;;;5050932;28;20029;-53
2023/06/15 12:35:58;;;;;;;3.30;2.10;;;26.90;56.90;;;;;;5050626;28;20044;-51
2023/06/15 12:38:26;;;;;;;5.45;1.90;;;26.90;57.00;;;;;;5049407;28;20393;-54
2023/06/15 12:40:52;;;;;;;4.50;2.40;;;26.80;57.00;;;;;;5050642;28;20029;-55
2023/06/15 12:43:18;;;;;;;3.55;2.20;;;26.70;56.70;;;;;;5051251;28;20064;-54
2023/06/15 12:45:44;;;;;;;3.53;1.85;;;26.80;57.10;;;;;;5049289;28;20405;-54
2023/06/15 12:48:10;;;;;;;2.55;1.65;;;26.90;57.50;;;;;;5050582;28;20029;-54
2023/06/15 12:50:36;;;;;;;2.75;1.90;;;26.80;56.70;;;;;;5050115;28;20032;-53